»·PEaware :: N4818C KVNY-KSBP

N4818C :: KVNY-KSBP

FLIGHT INFORMATION

Flight Status: Arrived
Operator: Privately registered:
United States
More flights under this callsign
Pilot: Aidan A. (8368)
Aircraft: GULFSTREAM G-1159C GULFSTREAM 4
(GLF4)
More flights by this aircraft type
Origin: KVNY Van Nuys
United States
Destination: KSBP San Luis Co Regl
United States
More flights between these airports :: More routes between these airports
Route: + CANOG2 FIM V186 RZS MQO
File this flight plan on PilotEdge
Remarks:
Altitude:
(Current/Filed)
12,000ft
Speed:
(Current/Filed)
300kts
Departed: 06-Feb-20 02:41 PM
Arrived: 06-Feb-20 03:14 PM
Distance/Time
Traveled:
123nm/0:33
Distance/Time
To Go:
Arrived

Flight Plot

Page will automatically refresh every two minutes.

Flight plan parsing failed; only flown route is shown


Map Options




Map Legend


Flown Route
Filed Route
Departure Airport
Arrival Airport
Navaid (VOR, NDB)
Fix

Horizontal Profiles

Position Reports

Time Latitude Longitude Heading Altitude Ground
Speed
06-Feb-20 14:21 34.200807 -118.487731 270 810ft 0kts
06-Feb-20 14:22 34.200807 -118.487731 270 810ft 0kts
06-Feb-20 14:23 34.200807 -118.487731 270 810ft 0kts
06-Feb-20 14:24 34.200807 -118.487731 270 810ft 0kts
06-Feb-20 14:25 34.200807 -118.487731 270 810ft 0kts
06-Feb-20 14:26 34.200807 -118.487731 270 810ft 0kts
06-Feb-20 14:27 34.200807 -118.487731 270 810ft 0kts
06-Feb-20 14:28 34.200807 -118.487731 270 810ft 0kts
06-Feb-20 14:28 34.200807 -118.487731 270 810ft 0kts
06-Feb-20 14:30 34.200807 -118.487731 270 810ft 0kts
06-Feb-20 14:31 34.200807 -118.487731 270 810ft 0kts
06-Feb-20 14:31 34.200807 -118.487731 270 810ft 0kts
06-Feb-20 14:32 34.200807 -118.487731 270 810ft 0kts
06-Feb-20 14:33 34.200807 -118.487797 270 810ft 0kts
06-Feb-20 14:34 34.203903 -118.488479 3 810ft 16kts
06-Feb-20 14:35 34.207577 -118.488221 3 810ft 10kts
06-Feb-20 14:37 34.210720 -118.488412 356 810ft 12kts
06-Feb-20 14:37 34.215364 -118.488861 349 810ft 19kts
06-Feb-20 14:38 34.218518 -118.489466 352 810ft 0kts
06-Feb-20 14:39 34.218262 -118.491181 177 810ft 12kts
06-Feb-20 14:40 34.181122 -118.490505 203 2465ft 198kts
06-Feb-20 14:41 34.139856 -118.537167 225 4085ft 205kts
06-Feb-20 14:42 34.098576 -118.584183 225 4077ft 203kts
06-Feb-20 14:43 34.054280 -118.633705 225 4071ft 265kts
06-Feb-20 14:44 33.998440 -118.675714 163 4075ft 253kts
06-Feb-20 14:45 33.997600 -118.610001 13 5629ft 271kts
06-Feb-20 14:46 34.072427 -118.614632 351 8723ft 271kts
06-Feb-20 14:47 34.148018 -118.623814 351 11760ft 292kts
06-Feb-20 14:48 34.236486 -118.651636 310 12059ft 333kts
06-Feb-20 14:49 34.280208 -118.749265 307 12052ft 336kts
06-Feb-20 14:50 34.333847 -118.841748 306 12046ft 333kts
06-Feb-20 14:51 34.367891 -118.945179 285 12047ft 335kts
06-Feb-20 14:52 34.387090 -119.055065 285 12046ft 330kts
06-Feb-20 14:53 34.406111 -119.164513 285 12049ft 330kts
06-Feb-20 14:54 34.424965 -119.273664 285 12053ft 330kts
06-Feb-20 14:55 34.443699 -119.382745 285 12053ft 330kts
06-Feb-20 14:56 34.462414 -119.492317 285 12052ft 330kts
06-Feb-20 14:57 34.480961 -119.601530 285 12052ft 330kts
06-Feb-20 14:58 34.499490 -119.711256 285 12055ft 331kts
06-Feb-20 14:59 34.538157 -119.807761 313 12027ft 323kts
06-Feb-20 15:00 34.598888 -119.888370 313 11151ft 319kts
06-Feb-20 15:01 34.650302 -119.964900 285 10247ft 321kts
06-Feb-20 15:02 34.648895 -120.057229 290 9484ft 320kts
06-Feb-20 15:03 34.695813 -120.143623 315 9007ft 314kts
06-Feb-20 15:04 34.760570 -120.216323 317 8996ft 314kts
06-Feb-20 15:05 34.825732 -120.287890 317 9028ft 314kts
06-Feb-20 15:06 34.890797 -120.359344 318 9036ft 314kts
06-Feb-20 15:07 34.956223 -120.431506 318 9035ft 319kts
06-Feb-20 15:08 35.022902 -120.505034 318 7857ft 321kts
06-Feb-20 15:09 35.097099 -120.534368 352 5825ft 260kts
06-Feb-20 15:10 35.159508 -120.546767 336 3877ft 217kts
06-Feb-20 15:11 35.205865 -120.586359 305 1518ft 209kts
06-Feb-20 15:12 35.231703 -120.631116 305 304ft 119kts
06-Feb-20 15:13 35.239852 -120.643981 63 220ft 6kts

Navigation Log

Ident Type
Flight plan parsing failed, navigation log unavailable